sensor_id;sensor_type;location;lat;lon;timestamp;temperature;humidity
2012;DHT22;1009;51.436;6.972;2023-08-07T00:00:04;13.20;99.90
2012;DHT22;1009;51.436;6.972;2023-08-07T00:02:34;13.20;99.90
2012;DHT22;1009;51.436;6.972;2023-08-07T00:05:02;13.20;99.90
2012;DHT22;1009;51.436;6.972;2023-08-07T00:07:29;13.20;99.90
2012;DHT22;1009;51.436;6.972;2023-08-07T00:09:59;13.20;99.90
2012;DHT22;1009;51.436;6.972;2023-08-07T00:12:29;13.20;99.90
2012;DHT22;1009;51.436;6.972;2023-08-07T00:14:57;13.20;99.90
2012;DHT22;1009;51.436;6.972;2023-08-07T00:17:24;13.20;99.90
2012;DHT22;1009;51.436;6.972;2023-08-07T00:19:51;13.20;99.90
2012;DHT22;1009;51.436;6.972;2023-08-07T00:22:18;13.20;99.90
2012;DHT22;1009;51.436;6.972;2023-08-07T00:24:44;13.20;99.90
2012;DHT22;1009;51.436;6.972;2023-08-07T00:27:12;13.20;99.90
2012;DHT22;1009;51.436;6.972;2023-08-07T00:29:40;13.30;99.90
2012;DHT22;1009;51.436;6.972;2023-08-07T00:32:07;13.20;99.90
2012;DHT22;1009;51.436;6.972;2023-08-07T00:34:34;13.20;99.90
2012;DHT22;1009;51.436;6.972;2023-08-07T00:37:06;13.20;99.90
2012;DHT22;1009;51.436;6.972;2023-08-07T00:39:34;13.10;99.90
2012;DHT22;1009;51.436;6.972;2023-08-07T00:42:00;13.20;99.90
2012;DHT22;1009;51.436;6.972;2023-08-07T00:44:29;13.20;99.90
2012;DHT22;1009;51.436;6.972;2023-08-07T00:46:55;13.20;99.90
2012;DHT22;1009;51.436;6.972;2023-08-07T00:49:22;13.20;99.90
2012;DHT22;1009;51.436;6.972;2023-08-07T00:51:49;13.20;99.90
2012;DHT22;1009;51.436;6.972;2023-08-07T00:54:18;13.10;99.90
2012;DHT22;1009;51.436;6.972;2023-08-07T00:56:46;13.10;99.90
2012;DHT22;1009;51.436;6.972;2023-08-07T00:59:13;13.10;99.90
2012;DHT22;1009;51.436;6.972;2023-08-07T01:01:41;13.10;99.90
2012;DHT22;1009;51.436;6.972;2023-08-07T01:04:08;13.10;99.90
2012;DHT22;1009;51.436;6.972;2023-08-07T01:06:35;13.10;99.90
2012;DHT22;1009;51.436;6.972;2023-08-07T01:09:02;13.10;99.90
2012;DHT22;1009;51.436;6.972;2023-08-07T01:11:33;13.10;99.90
2012;DHT22;1009;51.436;6.972;2023-08-07T01:14:13;13.10;99.90
2012;DHT22;1009;51.436;6.972;2023-08-07T01:16:48;13.10;99.90
2012;DHT22;1009;51.436;6.972;2023-08-07T01:19:23;13.10;99.90
2012;DHT22;1009;51.436;6.972;2023-08-07T01:22:04;13.10;99.90
2012;DHT22;1009;51.436;6.972;2023-08-07T01:24:31;13.10;99.90
2012;DHT22;1009;51.436;6.972;2023-08-07T01:27:02;13.10;99.90
2012;DHT22;1009;51.436;6.972;2023-08-07T01:29:39;13.10;99.90
2012;DHT22;1009;51.436;6.972;2023-08-07T01:32:10;13.10;99.90
2012;DHT22;1009;51.436;6.972;2023-08-07T01:34:40;13.10;99.90
2012;DHT22;1009;51.436;6.972;2023-08-07T01:37:10;13.20;99.90
2012;DHT22;1009;51.436;6.972;2023-08-07T01:39:37;13.10;99.90
2012;DHT22;1009;51.436;6.972;2023-08-07T01:42:05;13.20;99.90
2012;DHT22;1009;51.436;6.972;2023-08-07T01:44:32;13.10;99.90
2012;DHT22;1009;51.436;6.972;2023-08-07T01:46:59;13.20;99.90
2012;DHT22;1009;51.436;6.972;2023-08-07T01:49:26;13.10;99.90
2012;DHT22;1009;51.436;6.972;2023-08-07T01:51:53;13.10;99.90
2012;DHT22;1009;51.436;6.972;2023-08-07T01:54:21;13.10;99.90
2012;DHT22;1009;51.436;6.972;2023-08-07T01:56:48;13.20;99.90
2012;DHT22;1009;51.436;6.972;2023-08-07T01:59:15;13.20;99.90
2012;DHT22;1009;51.436;6.972;2023-08-07T02:01:41;13.10;99.90
2012;DHT22;1009;51.436;6.972;2023-08-07T02:04:08;13.10;99.90
2012;DHT22;1009;51.436;6.972;2023-08-07T02:06:35;13.10;99.90
2012;DHT22;1009;51.436;6.972;2023-08-07T02:09:02;13.20;99.90
2012;DHT22;1009;51.436;6.972;2023-08-07T02:11:30;13.20;99.90
2012;DHT22;1009;51.436;6.972;2023-08-07T02:13:56;13.20;99.90
2012;DHT22;1009;51.436;6.972;2023-08-07T02:16:23;13.10;99.90
2012;DHT22;1009;51.436;6.972;2023-08-07T02:18:50;13.10;99.90
2012;DHT22;1009;51.436;6.972;2023-08-07T02:21:17;13.10;99.90
2012;DHT22;1009;51.436;6.972;2023-08-07T02:23:44;13.10;99.90
2012;DHT22;1009;51.436;6.972;2023-08-07T02:26:10;13.10;99.90
2012;DHT22;1009;51.436;6.972;2023-08-07T02:28:39;13.10;99.90
2012;DHT22;1009;51.436;6.972;2023-08-07T02:31:05;13.10;99.90
2012;DHT22;1009;51.436;6.972;2023-08-07T02:33:32;13.10;99.90
2012;DHT22;1009;51.436;6.972;2023-08-07T02:35:59;13.10;99.90
2012;DHT22;1009;51.436;6.972;2023-08-07T02:38:26;13.00;99.90
2012;DHT22;1009;51.436;6.972;2023-08-07T02:40:53;13.00;99.90
2012;DHT22;1009;51.436;6.972;2023-08-07T02:43:20;13.00;99.90
2012;DHT22;1009;51.436;6.972;2023-08-07T02:45:48;13.00;99.90
2012;DHT22;1009;51.436;6.972;2023-08-07T02:48:15;13.00;99.90
2012;DHT22;1009;51.436;6.972;2023-08-07T02:50:43;13.00;99.90
2012;DHT22;1009;51.436;6.972;2023-08-07T02:53:10;13.00;99.90
2012;DHT22;1009;51.436;6.972;2023-08-07T02:55:38;13.00;99.90
2012;DHT22;1009;51.436;6.972;2023-08-07T02:58:04;13.00;99.90
2012;DHT22;1009;51.436;6.972;2023-08-07T03:00:31;13.00;99.90
2012;DHT22;1009;51.436;6.972;2023-08-07T03:03:02;13.00;99.90
2012;DHT22;1009;51.436;6.972;2023-08-07T03:05:29;13.00;99.90
2012;DHT22;1009;51.436;6.972;2023-08-07T03:07:56;13.00;99.90
2012;DHT22;1009;51.436;6.972;2023-08-07T03:10:23;13.00;99.90
2012;DHT22;1009;51.436;6.972;2023-08-07T03:12:50;13.00;99.90
2012;DHT22;1009;51.436;6.972;2023-08-07T03:15:16;13.10;99.90
2012;DHT22;1009;51.436;6.972;2023-08-07T03:17:43;13.10;99.90
2012;DHT22;1009;51.436;6.972;2023-08-07T03:20:12;13.00;99.90
2012;DHT22;1009;51.436;6.972;2023-08-07T03:22:39;13.00;99.90
2012;DHT22;1009;51.436;6.972;2023-08-07T03:25:06;13.00;99.90
2012;DHT22;1009;51.436;6.972;2023-08-07T03:27:33;13.00;99.90
2012;DHT22;1009;51.436;6.972;2023-08-07T03:30:00;13.00;99.90
2012;DHT22;1009;51.436;6.972;2023-08-07T03:32:28;13.00;99.90
2012;DHT22;1009;51.436;6.972;2023-08-07T03:34:54;13.00;99.90
2012;DHT22;1009;51.436;6.972;2023-08-07T03:37:23;13.00;99.90
2012;DHT22;1009;51.436;6.972;2023-08-07T03:39:50;13.00;99.90
2012;DHT22;1009;51.436;6.972;2023-08-07T03:42:17;13.00;99.90
2012;DHT22;1009;51.436;6.972;2023-08-07T03:44:43;13.00;99.90
2012;DHT22;1009;51.436;6.972;2023-08-07T03:47:10;13.00;99.90
2012;DHT22;1009;51.436;6.972;2023-08-07T03:49:37;13.00;99.90
2012;DHT22;1009;51.436;6.972;2023-08-07T03:52:04;12.90;99.90
2012;DHT22;1009;51.436;6.972;2023-08-07T03:54:33;13.00;99.90
2012;DHT22;1009;51.436;6.972;2023-08-07T03:57:00;13.00;99.90
2012;DHT22;1009;51.436;6.972;2023-08-07T03:59:27;13.00;99.90
2012;DHT22;1009;51.436;6.972;2023-08-07T04:01:53;13.00;99.90
2012;DHT22;1009;51.436;6.972;2023-08-07T04:04:20;13.00;99.90
2012;DHT22;1009;51.436;6.972;2023-08-07T04:06:47;13.00;99.90
2012;DHT22;1009;51.436;6.972;2023-08-07T04:09:14;13.00;99.90
2012;DHT22;1009;51.436;6.972;2023-08-07T04:11:43;12.90;99.90
2012;DHT22;1009;51.436;6.972;2023-08-07T04:14:10;12.90;99.90
2012;DHT22;1009;51.436;6.972;2023-08-07T04:16:37;12.90;99.90
2012;DHT22;1009;51.436;6.972;2023-08-07T04:19:04;12.90;99.90
2012;DHT22;1009;51.436;6.972;2023-08-07T04:21:32;13.00;99.90
2012;DHT22;1009;51.436;6.972;2023-08-07T04:23:59;13.00;99.90
2012;DHT22;1009;51.436;6.972;2023-08-07T04:26:26;13.00;99.90
2012;DHT22;1009;51.436;6.972;2023-08-07T04:28:54;13.00;99.90
2012;DHT22;1009;51.436;6.972;2023-08-07T04:31:21;13.00;99.90
2012;DHT22;1009;51.436;6.972;2023-08-07T04:33:48;13.00;99.90
2012;DHT22;1009;51.436;6.972;2023-08-07T04:36:14;13.00;99.90
2012;DHT22;1009;51.436;6.972;2023-08-07T04:38:41;13.00;99.90
2012;DHT22;1009;51.436;6.972;2023-08-07T04:41:08;13.00;99.90
2012;DHT22;1009;51.436;6.972;2023-08-07T04:43:35;13.00;99.90
2012;DHT22;1009;51.436;6.972;2023-08-07T04:46:03;13.00;99.90
2012;DHT22;1009;51.436;6.972;2023-08-07T04:48:30;13.00;99.90
2012;DHT22;1009;51.436;6.972;2023-08-07T04:50:58;13.10;99.90
2012;DHT22;1009;51.436;6.972;2023-08-07T04:53:25;13.10;99.90
2012;DHT22;1009;51.436;6.972;2023-08-07T04:55:51;13.10;99.90
2012;DHT22;1009;51.436;6.972;2023-08-07T04:58:18;13.10;99.90
2012;DHT22;1009;51.436;6.972;2023-08-07T05:00:45;13.00;99.90
2012;DHT22;1009;51.436;6.972;2023-08-07T05:03:13;13.10;99.90
2012;DHT22;1009;51.436;6.972;2023-08-07T05:05:43;13.00;99.90
2012;DHT22;1009;51.436;6.972;2023-08-07T05:08:10;13.10;99.90
2012;DHT22;1009;51.436;6.972;2023-08-07T05:10:37;13.10;99.90
2012;DHT22;1009;51.436;6.972;2023-08-07T05:13:04;13.10;99.90
2012;DHT22;1009;51.436;6.972;2023-08-07T05:15:31;13.10;99.90
2012;DHT22;1009;51.436;6.972;2023-08-07T05:17:58;13.10;99.90
2012;DHT22;1009;51.436;6.972;2023-08-07T05:20:26;13.10;99.90
2012;DHT22;1009;51.436;6.972;2023-08-07T05:22:53;13.10;99.90
2012;DHT22;1009;51.436;6.972;2023-08-07T05:25:21;13.10;99.90
2012;DHT22;1009;51.436;6.972;2023-08-07T05:27:48;13.10;99.90
2012;DHT22;1009;51.436;6.972;2023-08-07T05:30:15;13.10;99.90
2012;DHT22;1009;51.436;6.972;2023-08-07T05:32:42;13.10;99.90
2012;DHT22;1009;51.436;6.972;2023-08-07T05:35:09;13.00;99.90
2012;DHT22;1009;51.436;6.972;2023-08-07T05:37:38;13.00;99.90
2012;DHT22;1009;51.436;6.972;2023-08-07T05:40:06;13.00;99.90
2012;DHT22;1009;51.436;6.972;2023-08-07T05:42:33;12.90;99.90
2012;DHT22;1009;51.436;6.972;2023-08-07T05:45:00;12.90;99.90
2012;DHT22;1009;51.436;6.972;2023-08-07T05:47:27;12.90;99.90
2012;DHT22;1009;51.436;6.972;2023-08-07T05:49:54;12.90;99.90
2012;DHT22;1009;51.436;6.972;2023-08-07T05:52:20;12.90;99.90
2012;DHT22;1009;51.436;6.972;2023-08-07T05:54:49;12.90;99.90
2012;DHT22;1009;51.436;6.972;2023-08-07T05:57:17;12.90;99.90
2012;DHT22;1009;51.436;6.972;2023-08-07T05:59:44;12.90;99.90
2012;DHT22;1009;51.436;6.972;2023-08-07T06:02:11;12.90;99.90
2012;DHT22;1009;51.436;6.972;2023-08-07T06:04:38;12.90;99.90
2012;DHT22;1009;51.436;6.972;2023-08-07T06:07:06;12.90;99.90
2012;DHT22;1009;51.436;6.972;2023-08-07T06:09:34;12.90;99.90
2012;DHT22;1009;51.436;6.972;2023-08-07T06:12:04;12.80;99.90
2012;DHT22;1009;51.436;6.972;2023-08-07T06:14:31;12.90;99.90
2012;DHT22;1009;51.436;6.972;2023-08-07T06:16:58;12.90;99.90
2012;DHT22;1009;51.436;6.972;2023-08-07T06:19:26;12.90;99.90
2012;DHT22;1009;51.436;6.972;2023-08-07T06:21:53;12.90;99.90
2012;DHT22;1009;51.436;6.972;2023-08-07T06:24:21;12.90;99.90
2012;DHT22;1009;51.436;6.972;2023-08-07T06:26:48;12.90;99.90
2012;DHT22;1009;51.436;6.972;2023-08-07T06:29:16;12.90;99.90
2012;DHT22;1009;51.436;6.972;2023-08-07T06:31:43;13.00;99.90
2012;DHT22;1009;51.436;6.972;2023-08-07T06:34:09;13.00;99.90
2012;DHT22;1009;51.436;6.972;2023-08-07T06:36:36;13.00;99.90
2012;DHT22;1009;51.436;6.972;2023-08-07T06:39:03;13.00;99.90
2012;DHT22;1009;51.436;6.972;2023-08-07T06:41:30;13.00;99.90
2012;DHT22;1009;51.436;6.972;2023-08-07T06:43:57;13.00;99.90
2012;DHT22;1009;51.436;6.972;2023-08-07T06:46:25;13.10;99.90
2012;DHT22;1009;51.436;6.972;2023-08-07T06:48:53;13.10;99.90
2012;DHT22;1009;51.436;6.972;2023-08-07T06:51:20;13.10;99.90
2012;DHT22;1009;51.436;6.972;2023-08-07T06:53:46;13.10;99.90
2012;DHT22;1009;51.436;6.972;2023-08-07T06:56:13;13.20;99.90
2012;DHT22;1009;51.436;6.972;2023-08-07T06:58:40;13.20;99.90
2012;DHT22;1009;51.436;6.972;2023-08-07T07:01:07;13.20;99.90
2012;DHT22;1009;51.436;6.972;2023-08-07T07:03:35;13.20;99.90
2012;DHT22;1009;51.436;6.972;2023-08-07T07:06:02;13.20;99.90
2012;DHT22;1009;51.436;6.972;2023-08-07T07:08:29;13.30;99.90
2012;DHT22;1009;51.436;6.972;2023-08-07T07:10:56;13.20;99.90
2012;DHT22;1009;51.436;6.972;2023-08-07T07:13:23;13.30;99.90
2012;DHT22;1009;51.436;6.972;2023-08-07T07:15:53;13.30;99.90
2012;DHT22;1009;51.436;6.972;2023-08-07T07:18:20;13.30;99.90
2012;DHT22;1009;51.436;6.972;2023-08-07T07:20:56;13.30;99.90
2012;DHT22;1009;51.436;6.972;2023-08-07T07:23:22;13.30;99.90
2012;DHT22;1009;51.436;6.972;2023-08-07T07:25:49;13.40;99.90
2012;DHT22;1009;51.436;6.972;2023-08-07T07:28:16;13.40;99.90
2012;DHT22;1009;51.436;6.972;2023-08-07T07:30:42;13.40;99.90
2012;DHT22;1009;51.436;6.972;2023-08-07T07:33:09;13.40;99.90
2012;DHT22;1009;51.436;6.972;2023-08-07T07:35:37;13.40;99.90
2012;DHT22;1009;51.436;6.972;2023-08-07T07:38:06;13.40;99.90
2012;DHT22;1009;51.436;6.972;2023-08-07T07:40:34;13.40;99.90
2012;DHT22;1009;51.436;6.972;2023-08-07T07:43:01;13.40;99.90
2012;DHT22;1009;51.436;6.972;2023-08-07T07:45:28;13.40;99.90
2012;DHT22;1009;51.436;6.972;2023-08-07T07:47:54;13.40;99.90
2012;DHT22;1009;51.436;6.972;2023-08-07T07:50:22;13.40;99.90
2012;DHT22;1009;51.436;6.972;2023-08-07T07:52:48;13.50;99.90
2012;DHT22;1009;51.436;6.972;2023-08-07T07:55:17;13.50;99.90
2012;DHT22;1009;51.436;6.972;2023-08-07T07:57:43;13.50;99.90
2012;DHT22;1009;51.436;6.972;2023-08-07T08:00:12;13.50;99.90
2012;DHT22;1009;51.436;6.972;2023-08-07T08:02:39;13.50;99.90
2012;DHT22;1009;51.436;6.972;2023-08-07T08:05:08;13.50;99.90
2012;DHT22;1009;51.436;6.972;2023-08-07T08:07:36;13.50;99.90
2012;DHT22;1009;51.436;6.972;2023-08-07T08:10:05;13.50;99.90
2012;DHT22;1009;51.436;6.972;2023-08-07T08:12:34;13.40;99.90
2012;DHT22;1009;51.436;6.972;2023-08-07T08:15:00;13.50;99.90
2012;DHT22;1009;51.436;6.972;2023-08-07T08:17:27;13.50;99.90
2012;DHT22;1009;51.436;6.972;2023-08-07T08:19:55;13.60;99.90
2012;DHT22;1009;51.436;6.972;2023-08-07T08:22:22;13.50;99.90
2012;DHT22;1009;51.436;6.972;2023-08-07T08:24:49;13.60;99.90
2012;DHT22;1009;51.436;6.972;2023-08-07T08:27:16;13.60;99.90
2012;DHT22;1009;51.436;6.972;2023-08-07T08:29:45;13.60;99.90
2012;DHT22;1009;51.436;6.972;2023-08-07T08:32:12;13.70;99.90
2012;DHT22;1009;51.436;6.972;2023-08-07T08:34:39;13.70;99.90
2012;DHT22;1009;51.436;6.972;2023-08-07T08:37:06;13.80;99.90
2012;DHT22;1009;51.436;6.972;2023-08-07T08:39:33;13.80;99.90
2012;DHT22;1009;51.436;6.972;2023-08-07T08:42:00;13.80;99.90
2012;DHT22;1009;51.436;6.972;2023-08-07T08:44:29;13.90;99.90
2012;DHT22;1009;51.436;6.972;2023-08-07T08:47:00;13.90;99.90
2012;DHT22;1009;51.436;6.972;2023-08-07T08:49:30;14.00;99.90
2012;DHT22;1009;51.436;6.972;2023-08-07T08:51:59;14.10;99.90
2012;DHT22;1009;51.436;6.972;2023-08-07T08:54:26;14.20;99.90
2012;DHT22;1009;51.436;6.972;2023-08-07T08:56:54;14.20;99.90
2012;DHT22;1009;51.436;6.972;2023-08-07T08:59:21;14.30;99.90
2012;DHT22;1009;51.436;6.972;2023-08-07T09:01:51;14.30;99.90
2012;DHT22;1009;51.436;6.972;2023-08-07T09:04:19;14.30;99.90
2012;DHT22;1009;51.436;6.972;2023-08-07T09:06:46;14.40;99.90
2012;DHT22;1009;51.436;6.972;2023-08-07T09:09:14;14.50;99.90
2012;DHT22;1009;51.436;6.972;2023-08-07T09:11:41;14.50;99.90
2012;DHT22;1009;51.436;6.972;2023-08-07T09:14:09;14.50;99.90
2012;DHT22;1009;51.436;6.972;2023-08-07T09:16:38;14.50;99.90
2012;DHT22;1009;51.436;6.972;2023-08-07T09:19:06;14.60;99.90
2012;DHT22;1009;51.436;6.972;2023-08-07T09:21:35;14.60;99.90
2012;DHT22;1009;51.436;6.972;2023-08-07T09:24:02;14.70;99.90
2012;DHT22;1009;51.436;6.972;2023-08-07T09:26:28;14.90;99.90
2012;DHT22;1009;51.436;6.972;2023-08-07T09:28:55;15.00;99.90
2012;DHT22;1009;51.436;6.972;2023-08-07T09:31:24;15.20;99.90
2012;DHT22;1009;51.436;6.972;2023-08-07T09:33:52;15.30;99.90
2012;DHT22;1009;51.436;6.972;2023-08-07T09:36:19;15.30;99.90
2012;DHT22;1009;51.436;6.972;2023-08-07T09:38:50;15.10;99.90
2012;DHT22;1009;51.436;6.972;2023-08-07T09:41:18;15.00;99.90
2012;DHT22;1009;51.436;6.972;2023-08-07T09:43:45;14.90;99.90
2012;DHT22;1009;51.436;6.972;2023-08-07T09:46:12;14.80;99.90
2012;DHT22;1009;51.436;6.972;2023-08-07T09:48:40;14.80;99.90
2012;DHT22;1009;51.436;6.972;2023-08-07T09:51:07;14.60;99.90
2012;DHT22;1009;51.436;6.972;2023-08-07T09:53:34;14.60;99.90
2012;DHT22;1009;51.436;6.972;2023-08-07T09:56:03;14.50;99.90
2012;DHT22;1009;51.436;6.972;2023-08-07T09:58:29;14.60;99.90
2012;DHT22;1009;51.436;6.972;2023-08-07T10:00:59;14.60;99.90
2012;DHT22;1009;51.436;6.972;2023-08-07T10:03:27;14.70;99.90
2012;DHT22;1009;51.436;6.972;2023-08-07T10:05:54;14.70;99.90
2012;DHT22;1009;51.436;6.972;2023-08-07T10:08:22;14.80;99.90
2012;DHT22;1009;51.436;6.972;2023-08-07T10:10:49;14.90;99.90
2012;DHT22;1009;51.436;6.972;2023-08-07T10:13:18;15.30;99.90
2012;DHT22;1009;51.436;6.972;2023-08-07T10:15:46;15.40;99.90
2012;DHT22;1009;51.436;6.972;2023-08-07T10:18:14;15.30;99.90
2012;DHT22;1009;51.436;6.972;2023-08-07T10:20:40;15.10;99.90
2012;DHT22;1009;51.436;6.972;2023-08-07T10:23:10;15.10;99.90
2012;DHT22;1009;51.436;6.972;2023-08-07T10:25:39;15.20;99.90
2012;DHT22;1009;51.436;6.972;2023-08-07T10:28:09;15.20;99.90
2012;DHT22;1009;51.436;6.972;2023-08-07T10:30:38;15.20;99.90
2012;DHT22;1009;51.436;6.972;2023-08-07T10:33:07;15.40;99.90
2012;DHT22;1009;51.436;6.972;2023-08-07T10:35:35;15.40;99.90
2012;DHT22;1009;51.436;6.972;2023-08-07T10:38:06;15.40;99.90
2012;DHT22;1009;51.436;6.972;2023-08-07T10:40:34;15.40;99.90
2012;DHT22;1009;51.436;6.972;2023-08-07T10:43:12;15.30;99.90
2012;DHT22;1009;51.436;6.972;2023-08-07T10:45:41;15.20;99.90
2012;DHT22;1009;51.436;6.972;2023-08-07T10:48:10;15.10;99.90
2012;DHT22;1009;51.436;6.972;2023-08-07T10:50:50;14.90;99.90
2012;DHT22;1009;51.436;6.972;2023-08-07T10:53:21;14.70;99.90
2012;DHT22;1009;51.436;6.972;2023-08-07T10:55:54;14.60;99.90
2012;DHT22;1009;51.436;6.972;2023-08-07T10:58:24;14.50;99.90
2012;DHT22;1009;51.436;6.972;2023-08-07T11:03:35;14.30;99.90
2012;DHT22;1009;51.436;6.972;2023-08-07T11:06:02;14.40;99.90
2012;DHT22;1009;51.436;6.972;2023-08-07T11:08:29;14.50;99.90
2012;DHT22;1009;51.436;6.972;2023-08-07T11:11:03;14.60;99.90
2012;DHT22;1009;51.436;6.972;2023-08-07T11:13:30;14.70;99.90
2012;DHT22;1009;51.436;6.972;2023-08-07T11:15:58;14.90;99.90
2012;DHT22;1009;51.436;6.972;2023-08-07T11:18:26;15.30;99.90
2012;DHT22;1009;51.436;6.972;2023-08-07T11:20:53;15.70;99.90
2012;DHT22;1009;51.436;6.972;2023-08-07T11:23:23;16.30;99.90
2012;DHT22;1009;51.436;6.972;2023-08-07T11:25:50;16.70;99.90
2012;DHT22;1009;51.436;6.972;2023-08-07T11:28:18;17.10;99.90
2012;DHT22;1009;51.436;6.972;2023-08-07T11:30:45;17.30;99.90
2012;DHT22;1009;51.436;6.972;2023-08-07T11:33:14;17.30;99.90
2012;DHT22;1009;51.436;6.972;2023-08-07T11:35:43;17.10;99.90
2012;DHT22;1009;51.436;6.972;2023-08-07T11:38:10;17.00;99.90
2012;DHT22;1009;51.436;6.972;2023-08-07T11:40:37;16.60;99.90
2012;DHT22;1009;51.436;6.972;2023-08-07T11:43:04;16.10;99.90
2012;DHT22;1009;51.436;6.972;2023-08-07T11:45:31;15.60;99.90
2012;DHT22;1009;51.436;6.972;2023-08-07T11:47:58;15.30;99.90
2012;DHT22;1009;51.436;6.972;2023-08-07T11:50:27;15.10;99.90
2012;DHT22;1009;51.436;6.972;2023-08-07T11:52:54;15.10;99.90
2012;DHT22;1009;51.436;6.972;2023-08-07T11:55:28;15.40;99.90
2012;DHT22;1009;51.436;6.972;2023-08-07T11:57:55;15.70;99.90
2012;DHT22;1009;51.436;6.972;2023-08-07T12:00:25;16.20;99.90
2012;DHT22;1009;51.436;6.972;2023-08-07T12:02:53;16.70;99.90
2012;DHT22;1009;51.436;6.972;2023-08-07T12:05:20;17.00;99.90
2012;DHT22;1009;51.436;6.972;2023-08-07T12:07:50;17.20;99.90
2012;DHT22;1009;51.436;6.972;2023-08-07T12:10:17;17.20;99.90
2012;DHT22;1009;51.436;6.972;2023-08-07T12:12:44;17.20;99.90
2012;DHT22;1009;51.436;6.972;2023-08-07T12:15:11;16.90;99.90
2012;DHT22;1009;51.436;6.972;2023-08-07T12:17:38;17.00;99.90
2012;DHT22;1009;51.436;6.972;2023-08-07T12:20:06;17.20;99.90
2012;DHT22;1009;51.436;6.972;2023-08-07T12:22:36;17.30;99.90
2012;DHT22;1009;51.436;6.972;2023-08-07T12:25:04;17.50;99.90
2012;DHT22;1009;51.436;6.972;2023-08-07T12:27:31;17.70;99.90
2012;DHT22;1009;51.436;6.972;2023-08-07T12:29:58;18.00;99.90
2012;DHT22;1009;51.436;6.972;2023-08-07T12:32:25;17.90;99.90
2012;DHT22;1009;51.436;6.972;2023-08-07T12:34:51;17.60;99.90
2012;DHT22;1009;51.436;6.972;2023-08-07T12:37:19;17.40;99.90
2012;DHT22;1009;51.436;6.972;2023-08-07T12:39:45;17.20;99.90
2012;DHT22;1009;51.436;6.972;2023-08-07T12:42:14;17.10;99.90
2012;DHT22;1009;51.436;6.972;2023-08-07T12:44:43;17.30;99.90
2012;DHT22;1009;51.436;6.972;2023-08-07T12:47:09;17.30;99.90
2012;DHT22;1009;51.436;6.972;2023-08-07T12:49:36;17.30;99.90
2012;DHT22;1009;51.436;6.972;2023-08-07T12:52:04;17.20;99.90
2012;DHT22;1009;51.436;6.972;2023-08-07T12:54:31;17.00;99.90
2012;DHT22;1009;51.436;6.972;2023-08-07T12:56:58;17.00;99.90
2012;DHT22;1009;51.436;6.972;2023-08-07T12:59:26;17.00;99.90
2012;DHT22;1009;51.436;6.972;2023-08-07T13:01:53;16.80;99.90
2012;DHT22;1009;51.436;6.972;2023-08-07T13:04:19;16.80;99.90
2012;DHT22;1009;51.436;6.972;2023-08-07T13:06:46;16.60;99.90
2012;DHT22;1009;51.436;6.972;2023-08-07T13:09:14;16.70;99.90
2012;DHT22;1009;51.436;6.972;2023-08-07T13:11:41;16.90;99.90
2012;DHT22;1009;51.436;6.972;2023-08-07T13:14:08;17.40;99.90
2012;DHT22;1009;51.436;6.972;2023-08-07T13:16:36;17.70;99.90
2012;DHT22;1009;51.436;6.972;2023-08-07T13:19:03;18.10;99.90
2012;DHT22;1009;51.436;6.972;2023-08-07T13:21:30;18.50;99.90
2012;DHT22;1009;51.436;6.972;2023-08-07T13:23:56;18.70;99.90
2012;DHT22;1009;51.436;6.972;2023-08-07T13:26:23;18.90;99.90
2012;DHT22;1009;51.436;6.972;2023-08-07T13:28:50;19.00;99.90
2012;DHT22;1009;51.436;6.972;2023-08-07T13:31:17;19.20;99.90
2012;DHT22;1009;51.436;6.972;2023-08-07T13:33:45;19.20;99.90
2012;DHT22;1009;51.436;6.972;2023-08-07T13:36:12;19.30;99.90
2012;DHT22;1009;51.436;6.972;2023-08-07T13:38:38;19.50;99.90
2012;DHT22;1009;51.436;6.972;2023-08-07T13:41:05;19.50;99.90
2012;DHT22;1009;51.436;6.972;2023-08-07T13:43:33;19.20;99.90
2012;DHT22;1009;51.436;6.972;2023-08-07T13:45:59;19.00;99.90
2012;DHT22;1009;51.436;6.972;2023-08-07T13:48:26;19.00;99.90
2012;DHT22;1009;51.436;6.972;2023-08-07T13:50:54;19.20;99.90
2012;DHT22;1009;51.436;6.972;2023-08-07T13:53:21;19.50;99.90
2012;DHT22;1009;51.436;6.972;2023-08-07T13:55:49;19.20;99.90
2012;DHT22;1009;51.436;6.972;2023-08-07T13:58:16;18.80;99.90
2012;DHT22;1009;51.436;6.972;2023-08-07T14:00:43;18.50;99.90
2012;DHT22;1009;51.436;6.972;2023-08-07T14:03:10;18.20;99.90
2012;DHT22;1009;51.436;6.972;2023-08-07T14:05:38;18.10;99.90
2012;DHT22;1009;51.436;6.972;2023-08-07T14:08:06;18.00;99.90
2012;DHT22;1009;51.436;6.972;2023-08-07T14:10:34;18.10;99.90
2012;DHT22;1009;51.436;6.972;2023-08-07T14:13:02;18.30;99.90
2012;DHT22;1009;51.436;6.972;2023-08-07T14:15:29;18.50;99.90
2012;DHT22;1009;51.436;6.972;2023-08-07T14:17:55;18.90;99.90
2012;DHT22;1009;51.436;6.972;2023-08-07T14:20:23;19.30;99.90
2012;DHT22;1009;51.436;6.972;2023-08-07T14:22:49;19.50;99.90
2012;DHT22;1009;51.436;6.972;2023-08-07T14:25:18;19.40;99.90
2012;DHT22;1009;51.436;6.972;2023-08-07T14:27:47;19.20;99.90
2012;DHT22;1009;51.436;6.972;2023-08-07T14:30:14;19.10;99.90
2012;DHT22;1009;51.436;6.972;2023-08-07T14:32:41;19.10;99.90
2012;DHT22;1009;51.436;6.972;2023-08-07T14:35:08;19.10;99.90
2012;DHT22;1009;51.436;6.972;2023-08-07T14:37:35;18.90;99.90
2012;DHT22;1009;51.436;6.972;2023-08-07T14:40:02;18.90;99.90
2012;DHT22;1009;51.436;6.972;2023-08-07T14:42:30;18.80;99.90
2012;DHT22;1009;51.436;6.972;2023-08-07T14:44:57;18.70;99.90
2012;DHT22;1009;51.436;6.972;2023-08-07T14:47:24;18.80;99.90
2012;DHT22;1009;51.436;6.972;2023-08-07T14:49:50;19.10;99.90
2012;DHT22;1009;51.436;6.972;2023-08-07T14:52:17;19.20;99.90
2012;DHT22;1009;51.436;6.972;2023-08-07T14:54:44;19.30;99.90
2012;DHT22;1009;51.436;6.972;2023-08-07T14:57:11;19.30;99.90
2012;DHT22;1009;51.436;6.972;2023-08-07T14:59:39;19.50;99.90
2012;DHT22;1009;51.436;6.972;2023-08-07T15:02:06;19.60;99.90
2012;DHT22;1009;51.436;6.972;2023-08-07T15:04:33;19.50;99.90
2012;DHT22;1009;51.436;6.972;2023-08-07T15:06:59;19.20;99.90
2012;DHT22;1009;51.436;6.972;2023-08-07T15:09:26;19.10;99.90
2012;DHT22;1009;51.436;6.972;2023-08-07T15:11:53;19.20;99.90
2012;DHT22;1009;51.436;6.972;2023-08-07T15:14:20;19.30;99.90
2012;DHT22;1009;51.436;6.972;2023-08-07T15:16:48;19.30;99.90
2012;DHT22;1009;51.436;6.972;2023-08-07T15:19:14;19.20;99.90
2012;DHT22;1009;51.436;6.972;2023-08-07T15:21:41;19.10;99.90
2012;DHT22;1009;51.436;6.972;2023-08-07T15:24:09;18.90;99.90
2012;DHT22;1009;51.436;6.972;2023-08-07T15:26:35;18.70;99.90
2012;DHT22;1009;51.436;6.972;2023-08-07T15:29:03;18.60;99.90
2012;DHT22;1009;51.436;6.972;2023-08-07T15:31:30;18.50;99.90
2012;DHT22;1009;51.436;6.972;2023-08-07T15:33:58;18.40;99.90
2012;DHT22;1009;51.436;6.972;2023-08-07T15:36:25;18.30;99.90
2012;DHT22;1009;51.436;6.972;2023-08-07T15:38:52;18.20;99.90
2012;DHT22;1009;51.436;6.972;2023-08-07T15:41:20;18.20;99.90
2012;DHT22;1009;51.436;6.972;2023-08-07T15:43:47;18.20;99.90
2012;DHT22;1009;51.436;6.972;2023-08-07T15:46:14;18.20;99.90
2012;DHT22;1009;51.436;6.972;2023-08-07T15:48:41;18.20;99.90
2012;DHT22;1009;51.436;6.972;2023-08-07T15:51:09;18.20;99.90
2012;DHT22;1009;51.436;6.972;2023-08-07T15:53:36;18.10;99.90
2012;DHT22;1009;51.436;6.972;2023-08-07T15:56:03;18.10;99.90
2012;DHT22;1009;51.436;6.972;2023-08-07T15:58:30;18.10;99.90
2012;DHT22;1009;51.436;6.972;2023-08-07T16:00:57;18.00;99.90
2012;DHT22;1009;51.436;6.972;2023-08-07T16:03:24;18.00;99.90
2012;DHT22;1009;51.436;6.972;2023-08-07T16:05:50;17.80;99.90